sensor_id;sensor_type;location;lat;lon;timestamp;temperature;humidity
728;DHT22;347;48.780;9.158;2023-04-28T00:00:27;14.60;24.30
728;DHT22;347;48.780;9.158;2023-04-28T00:02:52;14.60;24.40
728;DHT22;347;48.780;9.158;2023-04-28T00:05:19;14.60;24.20
728;DHT22;347;48.780;9.158;2023-04-28T00:07:45;14.50;24.10
728;DHT22;347;48.780;9.158;2023-04-28T00:10:11;14.50;24.70
728;DHT22;347;48.780;9.158;2023-04-28T00:12:36;14.50;24.50
728;DHT22;347;48.780;9.158;2023-04-28T00:15:02;14.60;24.40
728;DHT22;347;48.780;9.158;2023-04-28T00:17:28;14.50;24.20
728;DHT22;347;48.780;9.158;2023-04-28T00:19:54;14.60;24.40
728;DHT22;347;48.780;9.158;2023-04-28T00:22:20;14.50;24.30
728;DHT22;347;48.780;9.158;2023-04-28T00:24:46;14.50;24.50
728;DHT22;347;48.780;9.158;2023-04-28T00:27:11;14.50;24.60
728;DHT22;347;48.780;9.158;2023-04-28T00:29:37;14.60;24.90
728;DHT22;347;48.780;9.158;2023-04-28T00:32:03;14.50;24.90
728;DHT22;347;48.780;9.158;2023-04-28T00:34:31;14.50;25.00
728;DHT22;347;48.780;9.158;2023-04-28T00:36:57;14.60;25.00
728;DHT22;347;48.780;9.158;2023-04-28T00:39:23;14.60;25.00
728;DHT22;347;48.780;9.158;2023-04-28T00:41:50;14.50;24.90
728;DHT22;347;48.780;9.158;2023-04-28T00:44:15;14.60;25.10
728;DHT22;347;48.780;9.158;2023-04-28T00:46:41;14.50;24.60
728;DHT22;347;48.780;9.158;2023-04-28T00:49:07;14.60;24.60
728;DHT22;347;48.780;9.158;2023-04-28T00:51:33;14.60;24.70
728;DHT22;347;48.780;9.158;2023-04-28T00:53:58;14.60;24.60
728;DHT22;347;48.780;9.158;2023-04-28T00:56:24;14.60;24.70
728;DHT22;347;48.780;9.158;2023-04-28T00:58:52;14.60;24.90
728;DHT22;347;48.780;9.158;2023-04-28T01:01:18;14.60;24.80
728;DHT22;347;48.780;9.158;2023-04-28T01:03:43;14.60;24.80
728;DHT22;347;48.780;9.158;2023-04-28T01:06:09;14.60;24.80
728;DHT22;347;48.780;9.158;2023-04-28T01:08:37;14.60;25.10
728;DHT22;347;48.780;9.158;2023-04-28T01:11:02;14.60;24.80
728;DHT22;347;48.780;9.158;2023-04-28T01:13:28;14.60;24.60
728;DHT22;347;48.780;9.158;2023-04-28T01:15:54;14.50;25.10
728;DHT22;347;48.780;9.158;2023-04-28T01:18:21;14.50;24.80
728;DHT22;347;48.780;9.158;2023-04-28T01:20:47;14.50;24.80
728;DHT22;347;48.780;9.158;2023-04-28T01:23:14;14.50;24.60
728;DHT22;347;48.780;9.158;2023-04-28T01:25:41;14.60;24.70
728;DHT22;347;48.780;9.158;2023-04-28T01:28:07;14.60;24.50
728;DHT22;347;48.780;9.158;2023-04-28T01:30:33;14.50;24.80
728;DHT22;347;48.780;9.158;2023-04-28T01:33:00;14.50;24.90
728;DHT22;347;48.780;9.158;2023-04-28T01:35:26;14.50;24.90
728;DHT22;347;48.780;9.158;2023-04-28T01:37:51;14.60;25.30
728;DHT22;347;48.780;9.158;2023-04-28T01:40:17;14.60;25.00
728;DHT22;347;48.780;9.158;2023-04-28T01:42:43;14.60;24.80
728;DHT22;347;48.780;9.158;2023-04-28T01:45:09;14.60;24.80
728;DHT22;347;48.780;9.158;2023-04-28T01:47:35;14.60;25.60
728;DHT22;347;48.780;9.158;2023-04-28T01:50:00;14.60;25.10
728;DHT22;347;48.780;9.158;2023-04-28T01:52:26;14.60;25.20
728;DHT22;347;48.780;9.158;2023-04-28T01:54:53;14.60;25.10
728;DHT22;347;48.780;9.158;2023-04-28T01:57:18;14.60;25.10
728;DHT22;347;48.780;9.158;2023-04-28T01:59:44;14.60;25.50
728;DHT22;347;48.780;9.158;2023-04-28T02:02:10;14.60;25.20
728;DHT22;347;48.780;9.158;2023-04-28T02:04:39;14.60;25.00
728;DHT22;347;48.780;9.158;2023-04-28T02:07:05;14.60;25.00
728;DHT22;347;48.780;9.158;2023-04-28T02:09:32;14.70;25.20
728;DHT22;347;48.780;9.158;2023-04-28T02:11:58;14.60;25.20
728;DHT22;347;48.780;9.158;2023-04-28T02:14:24;14.70;25.30
728;DHT22;347;48.780;9.158;2023-04-28T02:16:50;14.70;25.40
728;DHT22;347;48.780;9.158;2023-04-28T02:19:16;14.70;25.50
728;DHT22;347;48.780;9.158;2023-04-28T02:21:42;14.70;25.30
728;DHT22;347;48.780;9.158;2023-04-28T02:24:08;14.70;25.20
728;DHT22;347;48.780;9.158;2023-04-28T02:26:34;14.70;24.90
728;DHT22;347;48.780;9.158;2023-04-28T02:29:00;14.70;24.80
728;DHT22;347;48.780;9.158;2023-04-28T02:31:25;14.70;25.30
728;DHT22;347;48.780;9.158;2023-04-28T02:33:51;14.70;25.40
728;DHT22;347;48.780;9.158;2023-04-28T02:36:17;14.70;25.60
728;DHT22;347;48.780;9.158;2023-04-28T02:38:43;14.70;24.30
728;DHT22;347;48.780;9.158;2023-04-28T02:41:09;14.60;24.20
728;DHT22;347;48.780;9.158;2023-04-28T02:43:36;14.50;24.20
728;DHT22;347;48.780;9.158;2023-04-28T02:46:03;14.50;24.60
728;DHT22;347;48.780;9.158;2023-04-28T02:48:28;14.40;24.40
728;DHT22;347;48.780;9.158;2023-04-28T02:50:54;14.30;24.70
728;DHT22;347;48.780;9.158;2023-04-28T02:53:20;14.30;25.30
728;DHT22;347;48.780;9.158;2023-04-28T02:55:46;14.20;25.60
728;DHT22;347;48.780;9.158;2023-04-28T02:58:12;14.30;26.10
728;DHT22;347;48.780;9.158;2023-04-28T03:00:38;14.20;26.70
728;DHT22;347;48.780;9.158;2023-04-28T03:03:03;14.30;27.00
728;DHT22;347;48.780;9.158;2023-04-28T03:05:29;14.40;27.20
728;DHT22;347;48.780;9.158;2023-04-28T03:07:55;14.40;27.10
728;DHT22;347;48.780;9.158;2023-04-28T03:10:20;14.40;27.20
728;DHT22;347;48.780;9.158;2023-04-28T03:12:46;14.40;27.60
728;DHT22;347;48.780;9.158;2023-04-28T03:15:12;14.50;27.80
728;DHT22;347;48.780;9.158;2023-04-28T03:17:37;14.60;28.30
728;DHT22;347;48.780;9.158;2023-04-28T03:20:07;14.60;28.40
728;DHT22;347;48.780;9.158;2023-04-28T03:22:33;14.60;28.10
728;DHT22;347;48.780;9.158;2023-04-28T03:24:59;14.60;28.10
728;DHT22;347;48.780;9.158;2023-04-28T03:27:25;14.60;27.40
728;DHT22;347;48.780;9.158;2023-04-28T03:29:51;14.70;27.50
728;DHT22;347;48.780;9.158;2023-04-28T03:32:16;14.70;27.80
728;DHT22;347;48.780;9.158;2023-04-28T03:34:42;14.70;27.90
728;DHT22;347;48.780;9.158;2023-04-28T03:37:08;14.80;28.20
728;DHT22;347;48.780;9.158;2023-04-28T03:39:33;14.80;28.50
728;DHT22;347;48.780;9.158;2023-04-28T03:41:59;14.80;28.70
728;DHT22;347;48.780;9.158;2023-04-28T03:44:25;14.80;28.80
728;DHT22;347;48.780;9.158;2023-04-28T03:46:51;14.80;28.80
728;DHT22;347;48.780;9.158;2023-04-28T03:49:16;14.80;29.20
728;DHT22;347;48.780;9.158;2023-04-28T03:51:42;14.90;29.60
728;DHT22;347;48.780;9.158;2023-04-28T03:54:07;14.90;29.50
728;DHT22;347;48.780;9.158;2023-04-28T03:56:33;15.00;29.60
728;DHT22;347;48.780;9.158;2023-04-28T03:58:59;15.00;29.80
728;DHT22;347;48.780;9.158;2023-04-28T04:01:25;15.00;29.80
728;DHT22;347;48.780;9.158;2023-04-28T04:03:51;15.00;29.70
728;DHT22;347;48.780;9.158;2023-04-28T04:06:16;15.00;29.70
728;DHT22;347;48.780;9.158;2023-04-28T04:08:42;15.00;29.70
728;DHT22;347;48.780;9.158;2023-04-28T04:11:08;15.00;30.00
728;DHT22;347;48.780;9.158;2023-04-28T04:13:34;15.00;30.00
728;DHT22;347;48.780;9.158;2023-04-28T04:15:59;15.00;29.90
728;DHT22;347;48.780;9.158;2023-04-28T04:18:25;14.90;29.60
728;DHT22;347;48.780;9.158;2023-04-28T04:20:52;14.90;29.40
728;DHT22;347;48.780;9.158;2023-04-28T04:23:21;14.90;29.50
728;DHT22;347;48.780;9.158;2023-04-28T04:25:48;14.80;30.00
728;DHT22;347;48.780;9.158;2023-04-28T04:28:13;14.80;29.60
728;DHT22;347;48.780;9.158;2023-04-28T04:30:39;14.90;29.70
728;DHT22;347;48.780;9.158;2023-04-28T04:33:04;14.80;29.50
728;DHT22;347;48.780;9.158;2023-04-28T04:35:30;14.80;29.90
728;DHT22;347;48.780;9.158;2023-04-28T04:37:56;14.80;30.50
728;DHT22;347;48.780;9.158;2023-04-28T04:40:22;14.80;32.00
728;DHT22;347;48.780;9.158;2023-04-28T04:42:47;14.80;31.90
728;DHT22;347;48.780;9.158;2023-04-28T04:45:13;14.80;32.00
728;DHT22;347;48.780;9.158;2023-04-28T04:47:39;14.80;31.70
728;DHT22;347;48.780;9.158;2023-04-28T04:50:05;14.80;32.10
728;DHT22;347;48.780;9.158;2023-04-28T04:52:31;14.70;32.00
728;DHT22;347;48.780;9.158;2023-04-28T04:54:57;14.70;32.20
728;DHT22;347;48.780;9.158;2023-04-28T04:57:23;14.70;32.50
728;DHT22;347;48.780;9.158;2023-04-28T04:59:48;14.70;32.70
728;DHT22;347;48.780;9.158;2023-04-28T05:02:14;14.80;32.80
728;DHT22;347;48.780;9.158;2023-04-28T05:04:39;14.80;33.00
728;DHT22;347;48.780;9.158;2023-04-28T05:07:06;14.70;34.00
728;DHT22;347;48.780;9.158;2023-04-28T05:09:31;14.70;34.70
728;DHT22;347;48.780;9.158;2023-04-28T05:11:58;14.70;35.60
728;DHT22;347;48.780;9.158;2023-04-28T05:14:24;14.60;34.70
728;DHT22;347;48.780;9.158;2023-04-28T05:16:50;14.40;36.60
728;DHT22;347;48.780;9.158;2023-04-28T05:19:15;14.10;37.80
728;DHT22;347;48.780;9.158;2023-04-28T05:21:41;13.90;39.50
728;DHT22;347;48.780;9.158;2023-04-28T05:24:07;13.70;41.30
728;DHT22;347;48.780;9.158;2023-04-28T05:26:33;13.60;42.40
728;DHT22;347;48.780;9.158;2023-04-28T05:28:58;13.60;43.20
728;DHT22;347;48.780;9.158;2023-04-28T05:31:24;13.50;44.10
728;DHT22;347;48.780;9.158;2023-04-28T05:33:50;13.40;44.60
728;DHT22;347;48.780;9.158;2023-04-28T05:36:16;13.50;45.70
728;DHT22;347;48.780;9.158;2023-04-28T05:38:42;13.40;45.90
728;DHT22;347;48.780;9.158;2023-04-28T05:41:08;13.40;45.80
728;DHT22;347;48.780;9.158;2023-04-28T05:43:34;13.40;46.60
728;DHT22;347;48.780;9.158;2023-04-28T05:46:00;13.30;46.50
728;DHT22;347;48.780;9.158;2023-04-28T05:48:26;13.30;46.90
728;DHT22;347;48.780;9.158;2023-04-28T05:50:52;13.30;48.20
728;DHT22;347;48.780;9.158;2023-04-28T05:53:17;13.40;48.10
728;DHT22;347;48.780;9.158;2023-04-28T05:55:43;13.40;47.60
728;DHT22;347;48.780;9.158;2023-04-28T05:58:08;13.40;47.50
728;DHT22;347;48.780;9.158;2023-04-28T06:00:34;13.40;47.70
728;DHT22;347;48.780;9.158;2023-04-28T06:03:00;13.40;47.60
728;DHT22;347;48.780;9.158;2023-04-28T06:05:26;13.50;48.00
728;DHT22;347;48.780;9.158;2023-04-28T06:07:52;13.40;47.60
728;DHT22;347;48.780;9.158;2023-04-28T06:10:20;13.40;47.30
728;DHT22;347;48.780;9.158;2023-04-28T06:12:45;13.30;48.00
728;DHT22;347;48.780;9.158;2023-04-28T06:15:11;13.30;48.40
728;DHT22;347;48.780;9.158;2023-04-28T06:17:38;13.30;48.90
728;DHT22;347;48.780;9.158;2023-04-28T06:20:04;13.30;49.00
728;DHT22;347;48.780;9.158;2023-04-28T06:22:31;13.20;49.70
728;DHT22;347;48.780;9.158;2023-04-28T06:24:56;13.20;50.80
728;DHT22;347;48.780;9.158;2023-04-28T06:27:22;13.30;51.90
728;DHT22;347;48.780;9.158;2023-04-28T06:29:47;13.30;51.70
728;DHT22;347;48.780;9.158;2023-04-28T06:32:13;13.20;51.50
728;DHT22;347;48.780;9.158;2023-04-28T06:34:39;13.30;51.50
728;DHT22;347;48.780;9.158;2023-04-28T06:37:05;13.30;51.70
728;DHT22;347;48.780;9.158;2023-04-28T06:39:30;13.30;51.90
728;DHT22;347;48.780;9.158;2023-04-28T06:41:56;13.30;51.60
728;DHT22;347;48.780;9.158;2023-04-28T06:44:22;13.30;52.00
728;DHT22;347;48.780;9.158;2023-04-28T06:46:47;13.30;52.20
728;DHT22;347;48.780;9.158;2023-04-28T06:49:13;13.30;52.50
728;DHT22;347;48.780;9.158;2023-04-28T06:51:39;13.20;52.60
728;DHT22;347;48.780;9.158;2023-04-28T06:54:04;13.30;52.50
728;DHT22;347;48.780;9.158;2023-04-28T06:56:31;13.40;51.80
728;DHT22;347;48.780;9.158;2023-04-28T06:58:56;13.50;52.00
728;DHT22;347;48.780;9.158;2023-04-28T07:01:23;13.70;51.10
728;DHT22;347;48.780;9.158;2023-04-28T07:03:49;13.70;50.40
728;DHT22;347;48.780;9.158;2023-04-28T07:06:15;13.70;50.00
728;DHT22;347;48.780;9.158;2023-04-28T07:08:42;13.80;50.10
728;DHT22;347;48.780;9.158;2023-04-28T07:11:08;13.80;49.30
728;DHT22;347;48.780;9.158;2023-04-28T07:13:34;13.90;50.00
728;DHT22;347;48.780;9.158;2023-04-28T07:16:00;13.90;49.70
728;DHT22;347;48.780;9.158;2023-04-28T07:18:25;13.90;50.10
728;DHT22;347;48.780;9.158;2023-04-28T07:20:51;14.00;50.20
728;DHT22;347;48.780;9.158;2023-04-28T07:23:17;14.00;49.70
728;DHT22;347;48.780;9.158;2023-04-28T07:25:43;13.90;49.60
728;DHT22;347;48.780;9.158;2023-04-28T07:28:08;14.00;50.20
728;DHT22;347;48.780;9.158;2023-04-28T07:30:34;14.00;49.80
728;DHT22;347;48.780;9.158;2023-04-28T07:33:01;14.00;49.80
728;DHT22;347;48.780;9.158;2023-04-28T07:35:27;14.10;49.90
728;DHT22;347;48.780;9.158;2023-04-28T07:37:53;14.10;49.50
728;DHT22;347;48.780;9.158;2023-04-28T07:40:19;14.20;49.80
728;DHT22;347;48.780;9.158;2023-04-28T07:42:46;14.20;49.80
728;DHT22;347;48.780;9.158;2023-04-28T07:45:13;14.20;49.40
728;DHT22;347;48.780;9.158;2023-04-28T07:47:39;14.20;50.20
728;DHT22;347;48.780;9.158;2023-04-28T07:50:05;14.20;50.80
728;DHT22;347;48.780;9.158;2023-04-28T07:52:31;14.20;51.10
728;DHT22;347;48.780;9.158;2023-04-28T07:54:58;14.20;52.10
728;DHT22;347;48.780;9.158;2023-04-28T07:57:23;14.30;52.70
728;DHT22;347;48.780;9.158;2023-04-28T07:59:49;14.40;52.70
728;DHT22;347;48.780;9.158;2023-04-28T08:02:15;14.30;53.10
728;DHT22;347;48.780;9.158;2023-04-28T08:04:41;14.30;53.70
728;DHT22;347;48.780;9.158;2023-04-28T08:07:07;14.40;54.30
728;DHT22;347;48.780;9.158;2023-04-28T08:09:33;14.30;55.20
728;DHT22;347;48.780;9.158;2023-04-28T08:12:00;14.10;57.70
728;DHT22;347;48.780;9.158;2023-04-28T08:14:26;14.00;58.60
728;DHT22;347;48.780;9.158;2023-04-28T08:16:52;13.90;60.10
728;DHT22;347;48.780;9.158;2023-04-28T08:19:18;13.90;60.70
728;DHT22;347;48.780;9.158;2023-04-28T08:21:43;14.00;60.40
728;DHT22;347;48.780;9.158;2023-04-28T08:24:09;14.00;60.70
728;DHT22;347;48.780;9.158;2023-04-28T08:26:36;14.00;61.50
728;DHT22;347;48.780;9.158;2023-04-28T08:29:03;14.10;61.40
728;DHT22;347;48.780;9.158;2023-04-28T08:31:28;14.20;61.30
728;DHT22;347;48.780;9.158;2023-04-28T08:33:54;14.30;60.40
728;DHT22;347;48.780;9.158;2023-04-28T08:36:20;14.40;59.80
728;DHT22;347;48.780;9.158;2023-04-28T08:38:46;14.50;58.70
728;DHT22;347;48.780;9.158;2023-04-28T08:41:15;14.50;57.60
728;DHT22;347;48.780;9.158;2023-04-28T08:43:42;14.40;57.20
728;DHT22;347;48.780;9.158;2023-04-28T08:46:08;14.40;56.50
728;DHT22;347;48.780;9.158;2023-04-28T08:48:42;14.50;56.20
728;DHT22;347;48.780;9.158;2023-04-28T08:51:15;14.50;56.10
728;DHT22;347;48.780;9.158;2023-04-28T08:53:44;14.50;55.60
728;DHT22;347;48.780;9.158;2023-04-28T08:56:15;14.50;55.70
728;DHT22;347;48.780;9.158;2023-04-28T08:58:42;14.50;55.40
728;DHT22;347;48.780;9.158;2023-04-28T09:01:08;14.50;55.40
728;DHT22;347;48.780;9.158;2023-04-28T09:03:34;14.50;55.90
728;DHT22;347;48.780;9.158;2023-04-28T09:06:01;14.60;56.30
728;DHT22;347;48.780;9.158;2023-04-28T09:08:27;14.60;56.50
728;DHT22;347;48.780;9.158;2023-04-28T09:11:09;14.60;56.50
728;DHT22;347;48.780;9.158;2023-04-28T09:13:37;14.50;57.10
728;DHT22;347;48.780;9.158;2023-04-28T09:16:04;14.40;58.60
728;DHT22;347;48.780;9.158;2023-04-28T09:18:31;14.40;60.20
728;DHT22;347;48.780;9.158;2023-04-28T09:21:10;14.40;60.40
728;DHT22;347;48.780;9.158;2023-04-28T09:23:47;14.30;60.50
728;DHT22;347;48.780;9.158;2023-04-28T09:26:16;14.30;61.60
728;DHT22;347;48.780;9.158;2023-04-28T09:28:42;14.30;62.10
728;DHT22;347;48.780;9.158;2023-04-28T09:31:24;14.30;62.10
728;DHT22;347;48.780;9.158;2023-04-28T09:33:59;14.40;62.70
728;DHT22;347;48.780;9.158;2023-04-28T09:36:28;14.50;62.50
728;DHT22;347;48.780;9.158;2023-04-28T09:38:58;14.50;63.20
728;DHT22;347;48.780;9.158;2023-04-28T09:41:38;14.60;62.90
728;DHT22;347;48.780;9.158;2023-04-28T09:44:12;14.70;62.40
728;DHT22;347;48.780;9.158;2023-04-28T09:46:38;14.70;62.50
728;DHT22;347;48.780;9.158;2023-04-28T09:49:04;14.60;62.00
728;DHT22;347;48.780;9.158;2023-04-28T09:51:30;14.60;62.00
728;DHT22;347;48.780;9.158;2023-04-28T09:53:59;14.60;63.10
728;DHT22;347;48.780;9.158;2023-04-28T09:56:30;14.70;63.30
728;DHT22;347;48.780;9.158;2023-04-28T09:58:59;14.80;63.00
728;DHT22;347;48.780;9.158;2023-04-28T10:01:52;14.90;62.40
728;DHT22;347;48.780;9.158;2023-04-28T10:04:17;14.80;62.90
728;DHT22;347;48.780;9.158;2023-04-28T10:06:43;14.80;64.40
728;DHT22;347;48.780;9.158;2023-04-28T10:09:10;14.90;65.80
728;DHT22;347;48.780;9.158;2023-04-28T10:11:36;14.90;65.70
728;DHT22;347;48.780;9.158;2023-04-28T10:14:03;15.00;65.80
728;DHT22;347;48.780;9.158;2023-04-28T10:16:30;15.10;66.20
728;DHT22;347;48.780;9.158;2023-04-28T10:18:57;15.20;67.10
728;DHT22;347;48.780;9.158;2023-04-28T10:21:24;15.30;67.70
728;DHT22;347;48.780;9.158;2023-04-28T10:24:32;15.40;67.40
728;DHT22;347;48.780;9.158;2023-04-28T10:27:01;15.60;67.60
728;DHT22;347;48.780;9.158;2023-04-28T10:29:31;15.60;66.40
728;DHT22;347;48.780;9.158;2023-04-28T10:32:20;15.70;66.20
728;DHT22;347;48.780;9.158;2023-04-28T10:34:46;15.80;64.00
728;DHT22;347;48.780;9.158;2023-04-28T10:37:12;15.90;64.20
728;DHT22;347;48.780;9.158;2023-04-28T10:39:40;16.00;62.00
728;DHT22;347;48.780;9.158;2023-04-28T10:43:11;16.00;61.80
728;DHT22;347;48.780;9.158;2023-04-28T10:45:12;16.10;61.50
728;DHT22;347;48.780;9.158;2023-04-28T10:47:59;16.20;61.50
728;DHT22;347;48.780;9.158;2023-04-28T10:50:28;16.20;60.60
728;DHT22;347;48.780;9.158;2023-04-28T10:52:55;16.30;62.50
728;DHT22;347;48.780;9.158;2023-04-28T10:55:28;16.30;62.00
728;DHT22;347;48.780;9.158;2023-04-28T11:00:42;16.40;62.20
728;DHT22;347;48.780;9.158;2023-04-28T11:03:08;16.40;60.80
728;DHT22;347;48.780;9.158;2023-04-28T11:05:33;16.40;60.00
728;DHT22;347;48.780;9.158;2023-04-28T11:11:12;16.50;58.30
728;DHT22;347;48.780;9.158;2023-04-28T11:13:41;16.50;57.50
728;DHT22;347;48.780;9.158;2023-04-28T11:16:07;16.60;57.20
728;DHT22;347;48.780;9.158;2023-04-28T11:21:20;16.60;56.60
728;DHT22;347;48.780;9.158;2023-04-28T11:23:46;16.70;55.20
728;DHT22;347;48.780;9.158;2023-04-28T11:26:12;16.70;54.80
728;DHT22;347;48.780;9.158;2023-04-28T11:28:52;16.80;54.60
728;DHT22;347;48.780;9.158;2023-04-28T11:31:18;16.80;54.50
728;DHT22;347;48.780;9.158;2023-04-28T11:34:05;16.80;54.70
728;DHT22;347;48.780;9.158;2023-04-28T11:36:38;16.80;54.80
728;DHT22;347;48.780;9.158;2023-04-28T11:39:09;16.90;54.50
728;DHT22;347;48.780;9.158;2023-04-28T11:41:40;16.90;52.50
728;DHT22;347;48.780;9.158;2023-04-28T11:44:14;17.00;51.90
728;DHT22;347;48.780;9.158;2023-04-28T11:49:16;17.10;50.30
728;DHT22;347;48.780;9.158;2023-04-28T11:51:42;17.20;49.60
728;DHT22;347;48.780;9.158;2023-04-28T11:54:11;17.20;49.20
728;DHT22;347;48.780;9.158;2023-04-28T11:56:41;17.20;49.00
728;DHT22;347;48.780;9.158;2023-04-28T11:59:11;17.30;48.10
728;DHT22;347;48.780;9.158;2023-04-28T12:01:49;17.30;48.00
728;DHT22;347;48.780;9.158;2023-04-28T12:04:30;17.40;48.10
728;DHT22;347;48.780;9.158;2023-04-28T12:07:04;17.50;48.60
728;DHT22;347;48.780;9.158;2023-04-28T12:09:31;17.50;43.60
728;DHT22;347;48.780;9.158;2023-04-28T12:12:01;17.50;42.80
728;DHT22;347;48.780;9.158;2023-04-28T12:14:29;17.50;42.90
728;DHT22;347;48.780;9.158;2023-04-28T12:16:57;17.60;42.70
728;DHT22;347;48.780;9.158;2023-04-28T12:19:23;17.60;42.20
728;DHT22;347;48.780;9.158;2023-04-28T12:22:07;17.60;43.10
728;DHT22;347;48.780;9.158;2023-04-28T12:24:33;17.60;43.00
728;DHT22;347;48.780;9.158;2023-04-28T12:27:17;17.60;42.70
728;DHT22;347;48.780;9.158;2023-04-28T12:29:43;17.60;42.90
728;DHT22;347;48.780;9.158;2023-04-28T12:32:11;17.70;42.10
728;DHT22;347;48.780;9.158;2023-04-28T12:34:37;17.70;41.40
728;DHT22;347;48.780;9.158;2023-04-28T12:37:04;17.70;41.50
728;DHT22;347;48.780;9.158;2023-04-28T12:39:32;17.80;42.40
728;DHT22;347;48.780;9.158;2023-04-28T12:41:58;17.80;41.80
728;DHT22;347;48.780;9.158;2023-04-28T12:44:24;17.80;41.60
728;DHT22;347;48.780;9.158;2023-04-28T12:46:52;17.70;42.50
728;DHT22;347;48.780;9.158;2023-04-28T12:49:18;17.80;42.10
728;DHT22;347;48.780;9.158;2023-04-28T12:51:44;17.80;42.00
728;DHT22;347;48.780;9.158;2023-04-28T12:54:09;17.80;42.20
728;DHT22;347;48.780;9.158;2023-04-28T12:56:35;17.80;41.90
728;DHT22;347;48.780;9.158;2023-04-28T12:59:01;17.70;42.60
728;DHT22;347;48.780;9.158;2023-04-28T13:01:30;17.70;44.20
728;DHT22;347;48.780;9.158;2023-04-28T13:03:56;17.60;48.30
728;DHT22;347;48.780;9.158;2023-04-28T13:06:22;17.50;49.60
728;DHT22;347;48.780;9.158;2023-04-28T13:08:48;17.40;51.40
728;DHT22;347;48.780;9.158;2023-04-28T13:11:13;17.30;51.60
728;DHT22;347;48.780;9.158;2023-04-28T13:13:39;17.30;51.80
728;DHT22;347;48.780;9.158;2023-04-28T13:16:05;17.30;52.60
728;DHT22;347;48.780;9.158;2023-04-28T13:18:31;17.20;55.10
728;DHT22;347;48.780;9.158;2023-04-28T13:20:56;17.20;55.40
728;DHT22;347;48.780;9.158;2023-04-28T13:23:22;17.20;55.70
728;DHT22;347;48.780;9.158;2023-04-28T13:25:49;17.10;54.70
728;DHT22;347;48.780;9.158;2023-04-28T13:28:15;17.10;54.30
728;DHT22;347;48.780;9.158;2023-04-28T13:30:41;17.00;54.20
728;DHT22;347;48.780;9.158;2023-04-28T13:33:06;17.00;55.30
728;DHT22;347;48.780;9.158;2023-04-28T13:35:32;16.90;55.40
728;DHT22;347;48.780;9.158;2023-04-28T13:37:58;16.90;55.10
728;DHT22;347;48.780;9.158;2023-04-28T13:40:27;16.90;54.20
728;DHT22;347;48.780;9.158;2023-04-28T13:42:53;16.90;53.40
728;DHT22;347;48.780;9.158;2023-04-28T13:45:19;16.90;53.30
728;DHT22;347;48.780;9.158;2023-04-28T13:47:46;16.90;52.90
728;DHT22;347;48.780;9.158;2023-04-28T13:50:12;16.80;52.90
728;DHT22;347;48.780;9.158;2023-04-28T13:52:38;16.70;53.10
728;DHT22;347;48.780;9.158;2023-04-28T13:55:04;16.70;53.40
728;DHT22;347;48.780;9.158;2023-04-28T13:57:30;16.70;53.50
728;DHT22;347;48.780;9.158;2023-04-28T13:59:56;16.60;53.70
728;DHT22;347;48.780;9.158;2023-04-28T14:02:22;16.60;54.70
728;DHT22;347;48.780;9.158;2023-04-28T14:04:47;16.60;55.20
728;DHT22;347;48.780;9.158;2023-04-28T14:07:15;16.60;55.00
728;DHT22;347;48.780;9.158;2023-04-28T14:09:40;16.60;55.30
728;DHT22;347;48.780;9.158;2023-04-28T14:12:06;16.60;55.80
728;DHT22;347;48.780;9.158;2023-04-28T14:14:32;16.60;55.60
728;DHT22;347;48.780;9.158;2023-04-28T14:16:58;16.50;57.10
728;DHT22;347;48.780;9.158;2023-04-28T14:19:23;16.50;59.10
728;DHT22;347;48.780;9.158;2023-04-28T14:21:51;16.40;60.00
728;DHT22;347;48.780;9.158;2023-04-28T14:24:17;16.40;61.00
728;DHT22;347;48.780;9.158;2023-04-28T14:26:44;16.40;61.30
728;DHT22;347;48.780;9.158;2023-04-28T14:29:10;16.40;61.40
728;DHT22;347;48.780;9.158;2023-04-28T14:31:36;16.40;60.60
728;DHT22;347;48.780;9.158;2023-04-28T14:34:03;16.40;60.80
728;DHT22;347;48.780;9.158;2023-04-28T14:36:30;16.40;60.70
728;DHT22;347;48.780;9.158;2023-04-28T14:38:57;16.40;61.10
728;DHT22;347;48.780;9.158;2023-04-28T14:41:23;16.40;59.30
728;DHT22;347;48.780;9.158;2023-04-28T14:43:48;16.40;59.40
728;DHT22;347;48.780;9.158;2023-04-28T14:46:14;16.40;60.00
728;DHT22;347;48.780;9.158;2023-04-28T14:48:42;16.50;60.00
728;DHT22;347;48.780;9.158;2023-04-28T14:51:08;16.50;59.30
728;DHT22;347;48.780;9.158;2023-04-28T14:53:34;16.50;58.60
728;DHT22;347;48.780;9.158;2023-04-28T14:56:00;16.50;57.70
728;DHT22;347;48.780;9.158;2023-04-28T14:58:25;16.60;59.40
728;DHT22;347;48.780;9.158;2023-04-28T15:00:51;16.60;59.50
728;DHT22;347;48.780;9.158;2023-04-28T15:03:17;16.60;58.80
728;DHT22;347;48.780;9.158;2023-04-28T15:05:43;16.70;59.20
728;DHT22;347;48.780;9.158;2023-04-28T15:08:09;16.60;57.20
728;DHT22;347;48.780;9.158;2023-04-28T15:10:39;16.70;58.00
728;DHT22;347;48.780;9.158;2023-04-28T15:13:08;16.70;59.70
728;DHT22;347;48.780;9.158;2023-04-28T15:15:33;16.60;59.00
728;DHT22;347;48.780;9.158;2023-04-28T15:17:59;16.60;59.80
728;DHT22;347;48.780;9.158;2023-04-28T15:20:29;16.50;58.90
728;DHT22;347;48.780;9.158;2023-04-28T15:22:55;16.60;59.70
728;DHT22;347;48.780;9.158;2023-04-28T15:25:21;16.60;59.40
728;DHT22;347;48.780;9.158;2023-04-28T15:27:47;16.50;57.10
728;DHT22;347;48.780;9.158;2023-04-28T15:30:15;16.50;59.00
728;DHT22;347;48.780;9.158;2023-04-28T15:32:41;16.40;57.30
728;DHT22;347;48.780;9.158;2023-04-28T15:35:08;16.40;58.50
728;DHT22;347;48.780;9.158;2023-04-28T15:40:04;16.30;60.90
728;DHT22;347;48.780;9.158;2023-04-28T15:42:30;16.30;60.90
728;DHT22;347;48.780;9.158;2023-04-28T15:44:56;16.20;61.60
728;DHT22;347;48.780;9.158;2023-04-28T15:47:22;16.20;62.00
728;DHT22;347;48.780;9.158;2023-04-28T15:49:49;16.20;64.00
728;DHT22;347;48.780;9.158;2023-04-28T15:52:15;16.10;63.00
728;DHT22;347;48.780;9.158;2023-04-28T15:54:42;16.10;63.50
728;DHT22;347;48.780;9.158;2023-04-28T15:57:08;16.10;64.20
728;DHT22;347;48.780;9.158;2023-04-28T15:59:33;16.20;64.50
728;DHT22;347;48.780;9.158;2023-04-28T16:02:03;16.10;64.00
728;DHT22;347;48.780;9.158;2023-04-28T16:04:29;16.20;64.80
728;DHT22;347;48.780;9.158;2023-04-28T16:06:54;16.20;64.10
728;DHT22;347;48.780;9.158;2023-04-28T16:09:22;16.20;64.50
728;DHT22;347;48.780;9.158;2023-04-28T16:11:48;16.20;64.20
728;DHT22;347;48.780;9.158;2023-04-28T16:14:13;16.10;64.00
728;DHT22;347;48.780;9.158;2023-04-28T16:16:39;16.20;64.00
728;DHT22;347;48.780;9.158;2023-04-28T16:19:05;16.20;64.60
728;DHT22;347;48.780;9.158;2023-04-28T16:21:31;16.20;64.70
728;DHT22;347;48.780;9.158;2023-04-28T16:23:57;16.10;63.90
728;DHT22;347;48.780;9.158;2023-04-28T16:26:23;16.10;64.00
728;DHT22;347;48.780;9.158;2023-04-28T16:28:49;16.10;64.30
728;DHT22;347;48.780;9.158;2023-04-28T16:31:14;16.10;64.80
728;DHT22;347;48.780;9.158;2023-04-28T16:33:40;16.20;64.60
728;DHT22;347;48.780;9.158;2023-04-28T16:36:07;16.10;64.50
728;DHT22;347;48.780;9.158;2023-04-28T16:38:33;16.10;65.20
728;DHT22;347;48.780;9.158;2023-04-28T16:40:58;16.10;65.90
728;DHT22;347;48.780;9.158;2023-04-28T16:43:24;16.10;65.90
728;DHT22;347;48.780;9.158;2023-04-28T16:45:50;16.10;66.40